sensor_id;sensor_type;location;lat;lon;timestamp;pressure;altitude;pressure_sealevel;temperature;humidity
29825;BME280;16713;52.916;12.834;2023-02-02T00:01:44;100093.84;;;4.68;73.92
29825;BME280;16713;52.916;12.834;2023-02-02T00:04:17;100091.53;;;4.79;73.28
29825;BME280;16713;52.916;12.834;2023-02-02T00:06:44;100079.34;;;4.64;73.26
29825;BME280;16713;52.916;12.834;2023-02-02T00:09:11;100091.84;;;4.77;73.11
29825;BME280;16713;52.916;12.834;2023-02-02T00:11:38;100101.53;;;4.87;73.17
29825;BME280;16713;52.916;12.834;2023-02-02T00:14:04;100094.44;;;4.74;73.10
29825;BME280;16713;52.916;12.834;2023-02-02T00:19:00;100088.06;;;4.90;72.77
29825;BME280;16713;52.916;12.834;2023-02-02T00:21:27;100093.63;;;4.94;73.08
29825;BME280;16713;52.916;12.834;2023-02-02T00:23:54;100080.72;;;4.91;73.53
29825;BME280;16713;52.916;12.834;2023-02-02T00:26:20;100078.94;;;4.95;73.28
29825;BME280;16713;52.916;12.834;2023-02-02T00:28:46;100096.81;;;4.96;73.90
29825;BME280;16713;52.916;12.834;2023-02-02T00:31:13;100076.53;;;4.93;73.27
29825;BME280;16713;52.916;12.834;2023-02-02T00:33:43;100089.69;;;4.92;73.75
29825;BME280;16713;52.916;12.834;2023-02-02T00:36:09;100084.09;;;4.88;72.97
29825;BME280;16713;52.916;12.834;2023-02-02T00:38:35;100104.84;;;4.93;73.34
29825;BME280;16713;52.916;12.834;2023-02-02T00:41:03;100081.63;;;4.74;73.23
29825;BME280;16713;52.916;12.834;2023-02-02T00:43:30;100099.41;;;4.93;73.81
29825;BME280;16713;52.916;12.834;2023-02-02T00:45:56;100112.66;;;4.94;74.65
29825;BME280;16713;52.916;12.834;2023-02-02T00:48:22;100106.41;;;4.93;73.93
29825;BME280;16713;52.916;12.834;2023-02-02T00:50:51;100120.16;;;4.97;74.25
29825;BME280;16713;52.916;12.834;2023-02-02T00:53:18;100110.47;;;4.87;74.19
29825;BME280;16713;52.916;12.834;2023-02-02T00:55:44;100119.94;;;5.02;75.69
29825;BME280;16713;52.916;12.834;2023-02-02T00:58:10;100106.31;;;4.90;75.96
29825;BME280;16713;52.916;12.834;2023-02-02T01:00:37;100102.13;;;4.72;76.18
29825;BME280;16713;52.916;12.834;2023-02-02T01:03:03;100107.41;;;4.68;76.37
29825;BME280;16713;52.916;12.834;2023-02-02T01:05:32;100119.66;;;4.74;76.11
29825;BME280;16713;52.916;12.834;2023-02-02T01:07:59;100114.03;;;5.00;75.87
29825;BME280;16713;52.916;12.834;2023-02-02T01:10:25;100108.22;;;5.10;75.47
29825;BME280;16713;52.916;12.834;2023-02-02T01:12:52;100115.03;;;5.16;75.78
29825;BME280;16713;52.916;12.834;2023-02-02T01:15:18;100116.31;;;5.19;75.17
29825;BME280;16713;52.916;12.834;2023-02-02T01:17:45;100133.22;;;5.04;74.76
29825;BME280;16713;52.916;12.834;2023-02-02T01:20:15;100144.59;;;5.18;75.25
29825;BME280;16713;52.916;12.834;2023-02-02T01:22:42;100136.03;;;5.28;74.94
29825;BME280;16713;52.916;12.834;2023-02-02T01:25:08;100106.53;;;5.18;75.02
29825;BME280;16713;52.916;12.834;2023-02-02T01:27:34;100122.13;;;5.29;75.65
29825;BME280;16713;52.916;12.834;2023-02-02T01:30:01;100134.97;;;5.41;75.22
29825;BME280;16713;52.916;12.834;2023-02-02T01:32:27;100137.97;;;5.48;74.96
29825;BME280;16713;52.916;12.834;2023-02-02T01:34:53;100141.41;;;5.36;74.09
29825;BME280;16713;52.916;12.834;2023-02-02T01:37:20;100134.94;;;5.29;74.81
29825;BME280;16713;52.916;12.834;2023-02-02T01:39:47;100133.09;;;5.21;74.99
29825;BME280;16713;52.916;12.834;2023-02-02T01:42:15;100120.88;;;5.27;74.43
29825;BME280;16713;52.916;12.834;2023-02-02T01:45:02;100145.81;;;5.29;75.67
29825;BME280;16713;52.916;12.834;2023-02-02T01:47:31;100120.13;;;5.18;75.51
29825;BME280;16713;52.916;12.834;2023-02-02T01:49:58;100160.91;;;5.38;74.99
29825;BME280;16713;52.916;12.834;2023-02-02T01:52:26;100158.78;;;5.44;74.25
29825;BME280;16713;52.916;12.834;2023-02-02T01:54:58;100166.03;;;5.40;74.51
29825;BME280;16713;52.916;12.834;2023-02-02T01:57:30;100165.81;;;5.45;74.35
29825;BME280;16713;52.916;12.834;2023-02-02T01:59:59;100170.06;;;5.34;74.38
29825;BME280;16713;52.916;12.834;2023-02-02T02:02:26;100166.47;;;5.21;73.88
29825;BME280;16713;52.916;12.834;2023-02-02T02:04:53;100152.56;;;5.23;74.60
29825;BME280;16713;52.916;12.834;2023-02-02T02:07:20;100163.03;;;5.33;74.25
29825;BME280;16713;52.916;12.834;2023-02-02T02:09:47;100174.84;;;5.37;73.62
29825;BME280;16713;52.916;12.834;2023-02-02T02:12:14;100180.94;;;5.13;73.44
29825;BME280;16713;52.916;12.834;2023-02-02T02:14:41;100188.44;;;5.37;73.11
29825;BME280;16713;52.916;12.834;2023-02-02T02:18:10;100173.63;;;5.26;72.70
29825;BME280;16713;52.916;12.834;2023-02-02T02:37:21;100235.59;;;5.41;74.04
29825;BME280;16713;52.916;12.834;2023-02-02T02:39:53;100228.44;;;5.36;73.17
29825;BME280;16713;52.916;12.834;2023-02-02T02:42:23;100243.69;;;5.29;74.04
29825;BME280;16713;52.916;12.834;2023-02-02T02:44:50;100239.03;;;5.29;73.62
29825;BME280;16713;52.916;12.834;2023-02-02T02:47:18;100252.41;;;5.55;73.10
29825;BME280;16713;52.916;12.834;2023-02-02T02:49:46;100250.31;;;5.40;73.42
29825;BME280;16713;52.916;12.834;2023-02-02T02:52:12;100253.91;;;5.52;73.52
29825;BME280;16713;52.916;12.834;2023-02-02T02:54:46;100268.03;;;5.46;73.42
29825;BME280;16713;52.916;12.834;2023-02-02T02:59:51;100268.88;;;5.58;72.82
29825;BME280;16713;52.916;12.834;2023-02-02T03:05:14;100280.72;;;5.62;72.75
29825;BME280;16713;52.916;12.834;2023-02-02T03:07:46;100287.72;;;5.63;71.81
29825;BME280;16713;52.916;12.834;2023-02-02T03:10:16;100283.22;;;5.67;71.85
29825;BME280;16713;52.916;12.834;2023-02-02T03:12:47;100279.38;;;5.68;71.72
29825;BME280;16713;52.916;12.834;2023-02-02T03:15:15;100291.44;;;5.59;71.97
29825;BME280;16713;52.916;12.834;2023-02-02T03:17:42;100297.81;;;5.63;71.82
29825;BME280;16713;52.916;12.834;2023-02-02T03:20:08;100292.88;;;5.56;72.10
29825;BME280;16713;52.916;12.834;2023-02-02T03:22:35;100321.44;;;5.71;71.58
29825;BME280;16713;52.916;12.834;2023-02-02T03:25:02;100311.69;;;5.49;71.57
29825;BME280;16713;52.916;12.834;2023-02-02T03:27:28;100318.59;;;5.67;71.60
29825;BME280;16713;52.916;12.834;2023-02-02T03:29:54;100312.53;;;5.62;71.51
29825;BME280;16713;52.916;12.834;2023-02-02T03:32:21;100323.28;;;5.58;71.59
29825;BME280;16713;52.916;12.834;2023-02-02T03:34:47;100328.59;;;5.55;71.58
29825;BME280;16713;52.916;12.834;2023-02-02T03:37:13;100338.16;;;5.61;70.82
29825;BME280;16713;52.916;12.834;2023-02-02T03:39:40;100349.75;;;5.49;71.20
29825;BME280;16713;52.916;12.834;2023-02-02T03:42:06;100343.09;;;5.67;70.59
29825;BME280;16713;52.916;12.834;2023-02-02T03:44:32;100354.56;;;5.44;71.43
29825;BME280;16713;52.916;12.834;2023-02-02T03:46:59;100364.09;;;5.58;70.60
29825;BME280;16713;52.916;12.834;2023-02-02T03:49:25;100362.53;;;5.49;71.14
29825;BME280;16713;52.916;12.834;2023-02-02T03:51:51;100375.09;;;5.62;71.21
29825;BME280;16713;52.916;12.834;2023-02-02T03:54:18;100384.19;;;5.66;70.88
29825;BME280;16713;52.916;12.834;2023-02-02T03:56:44;100389.56;;;5.54;70.47
29825;BME280;16713;52.916;12.834;2023-02-02T03:59:10;100400.91;;;5.56;70.20
29825;BME280;16713;52.916;12.834;2023-02-02T04:01:37;100394.97;;;5.62;70.42
29825;BME280;16713;52.916;12.834;2023-02-02T04:04:03;100402.28;;;5.70;70.32
29825;BME280;16713;52.916;12.834;2023-02-02T04:06:29;100413.59;;;5.72;71.00
29825;BME280;16713;52.916;12.834;2023-02-02T04:08:56;100416.22;;;5.69;70.69
29825;BME280;16713;52.916;12.834;2023-02-02T04:11:22;100415.53;;;5.72;70.34
29825;BME280;16713;52.916;12.834;2023-02-02T04:13:48;100416.66;;;5.71;69.90
29825;BME280;16713;52.916;12.834;2023-02-02T04:16:15;100416.66;;;5.71;70.20
29825;BME280;16713;52.916;12.834;2023-02-02T04:18:41;100420.22;;;5.63;69.85
29825;BME280;16713;52.916;12.834;2023-02-02T04:21:08;100428.31;;;5.80;68.77
29825;BME280;16713;52.916;12.834;2023-02-02T04:23:34;100435.81;;;5.83;68.92
29825;BME280;16713;52.916;12.834;2023-02-02T04:26:01;100448.13;;;5.80;69.59
29825;BME280;16713;52.916;12.834;2023-02-02T04:28:27;100440.59;;;5.86;68.66
29825;BME280;16713;52.916;12.834;2023-02-02T04:30:54;100439.13;;;5.88;68.42
29825;BME280;16713;52.916;12.834;2023-02-02T04:33:21;100461.63;;;5.77;68.53
29825;BME280;16713;52.916;12.834;2023-02-02T04:35:48;100474.94;;;5.99;68.37
29825;BME280;16713;52.916;12.834;2023-02-02T04:38:14;100476.88;;;5.90;68.13
29825;BME280;16713;52.916;12.834;2023-02-02T04:40:42;100478.97;;;5.93;67.98
29825;BME280;16713;52.916;12.834;2023-02-02T04:43:08;100476.09;;;5.89;68.03
29825;BME280;16713;52.916;12.834;2023-02-02T04:45:35;100486.28;;;5.72;68.32
29825;BME280;16713;52.916;12.834;2023-02-02T04:48:02;100490.56;;;5.81;67.84
29825;BME280;16713;52.916;12.834;2023-02-02T04:50:28;100493.53;;;5.88;67.78
29825;BME280;16713;52.916;12.834;2023-02-02T04:52:55;100500.59;;;5.89;67.74
29825;BME280;16713;52.916;12.834;2023-02-02T04:55:21;100512.88;;;5.95;67.06
29825;BME280;16713;52.916;12.834;2023-02-02T04:57:48;100505.16;;;5.77;67.54
29825;BME280;16713;52.916;12.834;2023-02-02T05:00:15;100511.88;;;5.71;67.22
29825;BME280;16713;52.916;12.834;2023-02-02T05:02:42;100519.72;;;5.72;67.65
29825;BME280;16713;52.916;12.834;2023-02-02T05:05:09;100520.22;;;5.66;67.27
29825;BME280;16713;52.916;12.834;2023-02-02T05:07:36;100526.78;;;5.73;67.15
29825;BME280;16713;52.916;12.834;2023-02-02T05:10:03;100527.03;;;5.80;66.34
29825;BME280;16713;52.916;12.834;2023-02-02T05:12:29;100529.81;;;5.72;66.72
29825;BME280;16713;52.916;12.834;2023-02-02T05:14:56;100534.78;;;5.70;66.56
29825;BME280;16713;52.916;12.834;2023-02-02T05:17:22;100554.13;;;5.77;66.95
29825;BME280;16713;52.916;12.834;2023-02-02T05:19:49;100543.44;;;5.63;66.69
29825;BME280;16713;52.916;12.834;2023-02-02T05:22:15;100545.34;;;5.63;66.52
29825;BME280;16713;52.916;12.834;2023-02-02T05:24:41;100541.22;;;5.57;66.15
29825;BME280;16713;52.916;12.834;2023-02-02T05:27:08;100555.75;;;5.69;65.92
29825;BME280;16713;52.916;12.834;2023-02-02T05:29:34;100549.38;;;5.65;66.02
29825;BME280;16713;52.916;12.834;2023-02-02T05:32:00;100563.25;;;5.72;65.73
29825;BME280;16713;52.916;12.834;2023-02-02T05:34:27;100553.97;;;5.73;65.48
29825;BME280;16713;52.916;12.834;2023-02-02T05:36:53;100567.44;;;5.61;65.39
29825;BME280;16713;52.916;12.834;2023-02-02T05:39:19;100568.59;;;5.60;65.57
29825;BME280;16713;52.916;12.834;2023-02-02T05:41:45;100570.50;;;5.60;65.74
29825;BME280;16713;52.916;12.834;2023-02-02T05:44:12;100578.97;;;5.58;66.01
29825;BME280;16713;52.916;12.834;2023-02-02T05:46:38;100579.63;;;5.64;65.74
29825;BME280;16713;52.916;12.834;2023-02-02T05:49:05;100590.03;;;5.62;66.09
29825;BME280;16713;52.916;12.834;2023-02-02T05:51:51;100581.06;;;5.61;65.07
29825;BME280;16713;52.916;12.834;2023-02-02T05:54:18;100589.22;;;5.61;65.19
29825;BME280;16713;52.916;12.834;2023-02-02T05:56:46;100595.31;;;5.58;65.41
29825;BME280;16713;52.916;12.834;2023-02-02T05:59:12;100604.91;;;5.56;65.63
29825;BME280;16713;52.916;12.834;2023-02-02T06:01:39;100611.47;;;5.55;65.31
29825;BME280;16713;52.916;12.834;2023-02-02T06:04:05;100611.00;;;5.53;65.45
29825;BME280;16713;52.916;12.834;2023-02-02T06:06:32;100610.38;;;5.39;64.46
29825;BME280;16713;52.916;12.834;2023-02-02T06:09:01;100616.13;;;5.46;65.43
29825;BME280;16713;52.916;12.834;2023-02-02T06:11:27;100622.69;;;5.45;64.63
29825;BME280;16713;52.916;12.834;2023-02-02T06:13:53;100630.38;;;5.43;64.12
29825;BME280;16713;52.916;12.834;2023-02-02T06:16:20;100632.78;;;5.44;65.10
29825;BME280;16713;52.916;12.834;2023-02-02T06:18:46;100640.78;;;5.32;64.80
29825;BME280;16713;52.916;12.834;2023-02-02T06:21:13;100646.03;;;5.37;65.06
29825;BME280;16713;52.916;12.834;2023-02-02T06:23:40;100653.09;;;5.38;64.66
29825;BME280;16713;52.916;12.834;2023-02-02T06:26:14;100650.38;;;5.21;66.02
29825;BME280;16713;52.916;12.834;2023-02-02T06:28:41;100659.66;;;5.29;64.82
29825;BME280;16713;52.916;12.834;2023-02-02T06:31:08;100669.25;;;5.35;64.63
29825;BME280;16713;52.916;12.834;2023-02-02T06:33:36;100664.63;;;5.35;64.15
29825;BME280;16713;52.916;12.834;2023-02-02T06:36:03;100664.13;;;5.25;63.97
29825;BME280;16713;52.916;12.834;2023-02-02T06:38:30;100678.84;;;5.32;64.40
29825;BME280;16713;52.916;12.834;2023-02-02T06:40:59;100691.00;;;5.35;63.43
29825;BME280;16713;52.916;12.834;2023-02-02T06:43:27;100693.91;;;5.38;63.50
29825;BME280;16713;52.916;12.834;2023-02-02T06:45:53;100693.56;;;5.14;63.99
29825;BME280;16713;52.916;12.834;2023-02-02T06:48:19;100698.22;;;5.22;63.27
29825;BME280;16713;52.916;12.834;2023-02-02T06:50:46;100700.44;;;5.20;63.73
29825;BME280;16713;52.916;12.834;2023-02-02T06:53:12;100708.09;;;5.10;63.12
29825;BME280;16713;52.916;12.834;2023-02-02T06:55:39;100716.44;;;5.22;63.16
29825;BME280;16713;52.916;12.834;2023-02-02T06:58:05;100721.22;;;5.16;61.98
29825;BME280;16713;52.916;12.834;2023-02-02T07:00:31;100723.59;;;5.18;62.82
29825;BME280;16713;52.916;12.834;2023-02-02T07:02:58;100731.94;;;5.13;62.71
29825;BME280;16713;52.916;12.834;2023-02-02T07:05:26;100738.19;;;5.22;63.67
29825;BME280;16713;52.916;12.834;2023-02-02T07:07:55;100749.03;;;5.13;62.82
29825;BME280;16713;52.916;12.834;2023-02-02T07:10:22;100756.88;;;5.15;63.55
29825;BME280;16713;52.916;12.834;2023-02-02T07:13:08;100751.44;;;5.15;64.42
29825;BME280;16713;52.916;12.834;2023-02-02T07:15:37;100758.34;;;5.21;63.90
29825;BME280;16713;52.916;12.834;2023-02-02T07:18:03;100766.97;;;5.31;63.53
29825;BME280;16713;52.916;12.834;2023-02-02T07:20:30;100769.69;;;5.31;64.08
29825;BME280;16713;52.916;12.834;2023-02-02T07:22:56;100770.50;;;5.32;64.40
29825;BME280;16713;52.916;12.834;2023-02-02T07:25:22;100766.97;;;5.23;64.99
29825;BME280;16713;52.916;12.834;2023-02-02T07:27:53;100774.97;;;5.28;65.21
29825;BME280;16713;52.916;12.834;2023-02-02T07:30:19;100779.31;;;5.29;66.18
29825;BME280;16713;52.916;12.834;2023-02-02T07:32:47;100780.28;;;5.41;66.15
29825;BME280;16713;52.916;12.834;2023-02-02T07:35:13;100773.41;;;5.35;65.65
29825;BME280;16713;52.916;12.834;2023-02-02T07:37:40;100779.00;;;5.56;65.60
29825;BME280;16713;52.916;12.834;2023-02-02T07:40:07;100775.63;;;5.42;65.54
29825;BME280;16713;52.916;12.834;2023-02-02T07:42:33;100784.75;;;5.46;66.56
29825;BME280;16713;52.916;12.834;2023-02-02T07:45:00;100790.53;;;5.44;66.05
29825;BME280;16713;52.916;12.834;2023-02-02T07:47:46;100787.94;;;5.39;66.63
29825;BME280;16713;52.916;12.834;2023-02-02T07:50:12;100798.53;;;5.49;66.55
29825;BME280;16713;52.916;12.834;2023-02-02T07:52:39;100793.22;;;5.36;67.49
29825;BME280;16713;52.916;12.834;2023-02-02T07:55:05;100788.75;;;5.40;67.54
29825;BME280;16713;52.916;12.834;2023-02-02T07:57:40;100793.09;;;5.49;67.45
29825;BME280;16713;52.916;12.834;2023-02-02T08:00:06;100796.31;;;5.51;67.51
29825;BME280;16713;52.916;12.834;2023-02-02T08:02:33;100807.47;;;5.41;68.60
29825;BME280;16713;52.916;12.834;2023-02-02T08:04:59;100812.91;;;5.41;68.34
29825;BME280;16713;52.916;12.834;2023-02-02T08:07:25;100814.69;;;5.46;68.37
29825;BME280;16713;52.916;12.834;2023-02-02T08:09:52;100817.38;;;5.29;69.43
29825;BME280;16713;52.916;12.834;2023-02-02T08:12:18;100819.13;;;5.42;68.86
29825;BME280;16713;52.916;12.834;2023-02-02T08:14:46;100830.19;;;5.37;68.92
29825;BME280;16713;52.916;12.834;2023-02-02T08:17:12;100832.75;;;5.50;69.00
29825;BME280;16713;52.916;12.834;2023-02-02T08:19:39;100830.34;;;5.49;68.69
29825;BME280;16713;52.916;12.834;2023-02-02T08:22:05;100827.31;;;5.50;68.94
29825;BME280;16713;52.916;12.834;2023-02-02T08:24:31;100837.88;;;5.52;69.66
29825;BME280;16713;52.916;12.834;2023-02-02T08:26:58;100845.25;;;5.51;69.22
29825;BME280;16713;52.916;12.834;2023-02-02T08:29:24;100848.63;;;5.57;68.93
29825;BME280;16713;52.916;12.834;2023-02-02T08:31:50;100848.63;;;5.57;69.33
29825;BME280;16713;52.916;12.834;2023-02-02T08:34:17;100853.41;;;5.60;69.19
29825;BME280;16713;52.916;12.834;2023-02-02T08:36:43;100859.94;;;5.42;69.92
29825;BME280;16713;52.916;12.834;2023-02-02T08:39:10;100858.34;;;5.41;69.61
29825;BME280;16713;52.916;12.834;2023-02-02T08:41:37;100858.38;;;5.58;69.32
29825;BME280;16713;52.916;12.834;2023-02-02T08:44:04;100860.78;;;5.59;69.06
29825;BME280;16713;52.916;12.834;2023-02-02T08:46:31;100861.25;;;5.61;69.04
29825;BME280;16713;52.916;12.834;2023-02-02T08:48:57;100873.63;;;5.67;69.38
29825;BME280;16713;52.916;12.834;2023-02-02T08:51:24;100868.81;;;5.73;69.55
29825;BME280;16713;52.916;12.834;2023-02-02T08:53:50;100871.34;;;5.69;69.19
29825;BME280;16713;52.916;12.834;2023-02-02T08:56:17;100882.38;;;5.64;68.82
29825;BME280;16713;52.916;12.834;2023-02-02T08:58:48;100885.13;;;5.73;69.12
29825;BME280;16713;52.916;12.834;2023-02-02T09:01:16;100882.91;;;5.75;68.74
29825;BME280;16713;52.916;12.834;2023-02-02T09:03:43;100885.13;;;5.73;68.58
29825;BME280;16713;52.916;12.834;2023-02-02T09:06:11;100884.50;;;5.67;68.56
29825;BME280;16713;52.916;12.834;2023-02-02T09:08:38;100877.78;;;5.82;68.12
29825;BME280;16713;52.916;12.834;2023-02-02T09:11:12;100876.00;;;5.69;68.13
29825;BME280;16713;52.916;12.834;2023-02-02T09:13:39;100890.13;;;5.88;67.91
29825;BME280;16713;52.916;12.834;2023-02-02T09:16:07;100891.09;;;5.83;67.78
29825;BME280;16713;52.916;12.834;2023-02-02T09:18:34;100906.13;;;5.81;67.84
29825;BME280;16713;52.916;12.834;2023-02-02T09:21:01;100904.00;;;5.69;67.24
29825;BME280;16713;52.916;12.834;2023-02-02T09:23:29;100911.41;;;5.86;67.49
29825;BME280;16713;52.916;12.834;2023-02-02T09:25:56;100918.28;;;5.75;67.27
29825;BME280;16713;52.916;12.834;2023-02-02T09:28:22;100913.78;;;5.70;66.61
29825;BME280;16713;52.916;12.834;2023-02-02T09:30:49;100931.28;;;5.86;66.93
29825;BME280;16713;52.916;12.834;2023-02-02T09:33:16;100933.66;;;5.79;66.29
29825;BME280;16713;52.916;12.834;2023-02-02T09:35:42;100934.94;;;5.90;65.86
29825;BME280;16713;52.916;12.834;2023-02-02T09:38:09;100941.34;;;5.86;65.36
29825;BME280;16713;52.916;12.834;2023-02-02T09:40:35;100954.00;;;5.90;65.48
29825;BME280;16713;52.916;12.834;2023-02-02T09:45:50;100950.44;;;5.73;65.31
29825;BME280;16713;52.916;12.834;2023-02-02T09:48:35;100948.38;;;5.78;66.36
29825;BME280;16713;52.916;12.834;2023-02-02T09:51:15;100944.84;;;5.78;65.32
29825;BME280;16713;52.916;12.834;2023-02-02T09:53:51;100952.53;;;5.67;66.09
29825;BME280;16713;52.916;12.834;2023-02-02T09:56:36;100970.16;;;5.87;66.04
29825;BME280;16713;52.916;12.834;2023-02-02T09:59:04;100964.72;;;5.87;66.81
29825;BME280;16713;52.916;12.834;2023-02-02T10:01:46;100965.53;;;5.87;66.43
29825;BME280;16713;52.916;12.834;2023-02-02T10:06:46;100973.19;;;5.85;66.98
29825;BME280;16713;52.916;12.834;2023-02-02T10:11:46;100979.34;;;6.08;65.55
29825;BME280;16713;52.916;12.834;2023-02-02T10:14:17;100979.97;;;6.05;65.27
29825;BME280;16713;52.916;12.834;2023-02-02T10:16:45;100986.53;;;6.12;64.95
29825;BME280;16713;52.916;12.834;2023-02-02T10:19:13;100980.16;;;6.17;65.07
29825;BME280;16713;52.916;12.834;2023-02-02T10:21:42;100990.72;;;6.27;65.21
29825;BME280;16713;52.916;12.834;2023-02-02T10:24:15;100992.56;;;6.32;64.30
29825;BME280;16713;52.916;12.834;2023-02-02T10:26:47;100991.59;;;6.36;64.09
29825;BME280;16713;52.916;12.834;2023-02-02T10:30:00;101001.22;;;6.42;64.51
29825;BME280;16713;52.916;12.834;2023-02-02T10:32:17;101003.78;;;6.47;63.85
29825;BME280;16713;52.916;12.834;2023-02-02T10:45:38;101011.75;;;6.35;63.59
29825;BME280;16713;52.916;12.834;2023-02-02T10:48:13;101016.09;;;6.27;63.88
29825;BME280;16713;52.916;12.834;2023-02-02T10:50:44;101014.03;;;6.33;64.06
29825;BME280;16713;52.916;12.834;2023-02-02T10:53:14;101024.28;;;6.45;62.99
29825;BME280;16713;52.916;12.834;2023-02-02T10:55:57;101025.09;;;6.45;63.31
29825;BME280;16713;52.916;12.834;2023-02-02T10:58:26;101040.47;;;6.41;63.08
29825;BME280;16713;52.916;12.834;2023-02-02T11:00:54;101037.13;;;6.44;63.38
29825;BME280;16713;52.916;12.834;2023-02-02T11:03:32;101036.94;;;6.41;62.69
29825;BME280;16713;52.916;12.834;2023-02-02T11:05:59;101043.66;;;6.43;62.71
29825;BME280;16713;52.916;12.834;2023-02-02T11:08:46;101052.66;;;6.44;62.40
29825;BME280;16713;52.916;12.834;2023-02-02T11:11:18;101083.91;;;6.38;62.47
29825;BME280;16713;52.916;12.834;2023-02-02T11:14:02;101109.06;;;6.12;65.04
29825;BME280;16713;52.916;12.834;2023-02-02T11:16:30;101108.72;;;5.97;66.31
29825;BME280;16713;52.916;12.834;2023-02-02T11:21:40;101111.09;;;5.59;68.97
29825;BME280;16713;52.916;12.834;2023-02-02T11:24:26;101108.81;;;5.31;70.09
29825;BME280;16713;52.916;12.834;2023-02-02T11:26:54;101108.63;;;5.49;68.88
29825;BME280;16713;52.916;12.834;2023-02-02T11:29:30;101127.16;;;5.47;69.91
29825;BME280;16713;52.916;12.834;2023-02-02T11:31:57;101127.28;;;5.42;69.98
29825;BME280;16713;52.916;12.834;2023-02-02T11:34:42;101126.63;;;5.37;70.15
29825;BME280;16713;52.916;12.834;2023-02-02T11:37:19;101125.97;;;5.18;69.43
29825;BME280;16713;52.916;12.834;2023-02-02T11:39:46;101116.84;;;5.14;71.01
29825;BME280;16713;52.916;12.834;2023-02-02T11:42:15;101119.63;;;5.22;71.12
29825;BME280;16713;52.916;12.834;2023-02-02T11:44:44;101122.03;;;5.24;70.99
29825;BME280;16713;52.916;12.834;2023-02-02T11:50:14;101116.81;;;5.27;69.38
29825;BME280;16713;52.916;12.834;2023-02-02T11:52:43;101120.78;;;5.08;70.35
29825;BME280;16713;52.916;12.834;2023-02-02T11:55:14;101124.66;;;5.29;69.47
29825;BME280;16713;52.916;12.834;2023-02-02T11:58:08;101119.44;;;5.19;68.99
29825;BME280;16713;52.916;12.834;2023-02-02T12:00:28;101130.31;;;5.19;69.96
29825;BME280;16713;52.916;12.834;2023-02-02T12:02:55;101131.47;;;5.26;69.13
29825;BME280;16713;52.916;12.834;2023-02-02T12:05:33;101137.84;;;5.44;69.83
29825;BME280;16713;52.916;12.834;2023-02-02T12:08:00;101130.75;;;5.34;69.22
29825;BME280;16713;52.916;12.834;2023-02-02T12:10:35;101129.50;;;5.40;69.07
29825;BME280;16713;52.916;12.834;2023-02-02T12:15:45;101133.88;;;5.50;68.83
29825;BME280;16713;52.916;12.834;2023-02-02T12:18:25;101144.03;;;5.58;69.08
29825;BME280;16713;52.916;12.834;2023-02-02T12:26:27;101141.69;;;5.65;67.89
29825;BME280;16713;52.916;12.834;2023-02-02T12:28:58;101138.97;;;5.43;67.81
29825;BME280;16713;52.916;12.834;2023-02-02T12:36:53;101158.44;;;5.36;66.23
29825;BME280;16713;52.916;12.834;2023-02-02T12:42:10;101167.47;;;5.45;66.01
29825;BME280;16713;52.916;12.834;2023-02-02T12:49:47;101166.25;;;5.51;66.04
29825;BME280;16713;52.916;12.834;2023-02-02T12:52:28;101167.75;;;5.66;66.25
29825;BME280;16713;52.916;12.834;2023-02-02T13:11:04;101207.53;;;5.97;64.37
29825;BME280;16713;52.916;12.834;2023-02-02T13:13:32;101202.41;;;6.04;64.00
29825;BME280;16713;52.916;12.834;2023-02-02T13:16:06;101205.97;;;6.05;63.32
29825;BME280;16713;52.916;12.834;2023-02-02T13:18:35;101220.72;;;6.12;62.15
29825;BME280;16713;52.916;12.834;2023-02-02T13:21:05;101217.97;;;6.04;61.55
29825;BME280;16713;52.916;12.834;2023-02-02T13:23:33;101227.94;;;6.08;60.36
29825;BME280;16713;52.916;12.834;2023-02-02T13:34:01;101249.03;;;6.03;60.46
29825;BME280;16713;52.916;12.834;2023-02-02T13:36:30;101249.84;;;6.03;59.89
29825;BME280;16713;52.916;12.834;2023-02-02T13:39:08;101253.38;;;6.04;60.33
29825;BME280;16713;52.916;12.834;2023-02-02T13:41:37;101255.72;;;5.97;60.07
29825;BME280;16713;52.916;12.834;2023-02-02T13:44:08;101263.25;;;6.00;60.28
29825;BME280;16713;52.916;12.834;2023-02-02T13:46:44;101271.38;;;5.91;59.29
29825;BME280;16713;52.916;12.834;2023-02-02T14:01:40;101308.28;;;5.84;56.46
29825;BME280;16713;52.916;12.834;2023-02-02T14:04:15;101329.84;;;5.94;56.33
29825;BME280;16713;52.916;12.834;2023-02-02T14:06:48;101328.66;;;5.86;56.07
29825;BME280;16713;52.916;12.834;2023-02-02T14:09:17;101328.28;;;5.79;56.09
29825;BME280;16713;52.916;12.834;2023-02-02T14:11:50;101338.22;;;5.84;56.04
29825;BME280;16713;52.916;12.834;2023-02-02T14:14:19;101337.56;;;5.78;56.28
29825;BME280;16713;52.916;12.834;2023-02-02T14:17:00;101342.53;;;5.63;56.00
29825;BME280;16713;52.916;12.834;2023-02-02T14:26:53;101356.31;;;5.66;55.72
29825;BME280;16713;52.916;12.834;2023-02-02T14:31:55;101379.84;;;5.62;55.64
29825;BME280;16713;52.916;12.834;2023-02-02T14:42:23;101409.88;;;5.57;54.76
29825;BME280;16713;52.916;12.834;2023-02-02T14:47:46;101420.22;;;5.42;54.47
29825;BME280;16713;52.916;12.834;2023-02-02T14:50:14;101430.31;;;5.55;54.50
29825;BME280;16713;52.916;12.834;2023-02-02T14:52:42;101442.91;;;5.51;53.73
29825;BME280;16713;52.916;12.834;2023-02-02T14:55:16;101438.19;;;5.43;53.84
29825;BME280;16713;52.916;12.834;2023-02-02T14:57:43;101446.25;;;5.48;54.54
29825;BME280;16713;52.916;12.834;2023-02-02T15:00:19;101448.13;;;5.34;54.72
29825;BME280;16713;52.916;12.834;2023-02-02T15:02:46;101462.44;;;5.39;54.03
29825;BME280;16713;52.916;12.834;2023-02-02T15:08:04;101478.97;;;5.43;54.68
29825;BME280;16713;52.916;12.834;2023-02-02T15:13:13;101479.59;;;5.40;54.90